Time;durP1;ratioP1;P1;durP2;ratioP2;P2;SDS_P1;SDS_P2;PMS_P1;PMS_P2;Temp;Humidity;BMP_temperature;BMP_pressure;BME280_temperature;BME280_humidity;BME280_pressure;Samples;Min_cycle;Max_cycle;Signal;HPM_P1;HPM_P2
2021/12/17 00:07:13;;;;;;;20.13;10.47;;;8.30;99.90;;;8.57;94.95;102875.47;5037193;28;21052;-65
2021/12/17 00:09:44;;;;;;;15.97;9.63;;;8.40;99.90;;;8.56;95.30;102861.59;5030975;28;21229;-65
2021/12/17 00:12:15;;;;;;;19.97;10.30;;;8.30;99.90;;;8.59;95.11;102869.31;5014489;28;20605;-65
2021/12/17 00:14:47;;;;;;;16.90;9.27;;;8.40;99.90;;;8.61;95.50;102858.84;5023527;28;20643;-65
2021/12/17 00:17:21;;;;;;;20.50;11.07;;;8.40;99.90;;;8.63;95.04;102867.47;5024199;28;20652;-65
2021/12/17 00:20:28;;;;;;;20.23;10.50;;;8.40;99.90;;;8.68;94.91;102875.16;5016166;28;20675;-65
2021/12/17 00:53:17;;;;;;;19.63;10.27;;;8.60;99.90;;;8.83;95.26;102851.28;5020761;28;20642;-65
2021/12/17 00:55:45;;;;;;;19.37;9.90;;;8.60;99.90;;;8.82;95.37;102844.34;5020662;28;20995;-65
2021/12/17 00:58:12;;;;;;;19.53;9.67;;;8.60;99.90;;;8.82;95.48;102853.03;5016507;28;20658;-64
2021/12/17 01:00:40;;;;;;;23.30;12.03;;;8.60;99.90;;;8.83;95.38;102859.94;5020406;28;21094;-64
2021/12/17 01:03:07;;;;;;;22.20;11.93;;;8.60;99.90;;;8.81;95.40;102856.53;5031001;28;20612;-64
2021/12/17 01:05:34;;;;;;;21.90;12.80;;;8.60;99.90;;;8.78;94.72;102848.81;5029747;28;20636;-64
2021/12/17 01:08:04;;;;;;;18.20;11.10;;;8.60;99.90;;;8.80;95.39;102847.00;5030089;28;20622;-65
2021/12/17 01:10:50;;;;;;;25.07;12.23;;;8.60;99.90;;;8.81;95.12;102847.88;5020978;28;21037;-64
2021/12/17 01:13:18;;;;;;;18.73;10.27;;;8.60;99.90;;;8.80;95.60;102847.00;5028050;28;20644;-64
2021/12/17 01:15:46;;;;;;;20.27;10.70;;;8.60;99.90;;;8.81;95.82;102851.34;5030032;28;20622;-64
2021/12/17 01:18:18;;;;;;;22.27;11.67;;;8.60;99.90;;;8.82;95.67;102846.97;5024366;28;20675;-64
2021/12/17 01:21:07;;;;;;;23.80;10.93;;;8.60;99.90;;;8.82;95.62;102845.22;5023636;28;20716;-64
2021/12/17 01:37:49;;;;;;;23.17;12.60;;;8.60;99.90;;;8.81;95.37;102866.97;5030928;28;20675;-65
2021/12/17 01:42:20;;;;;;;21.80;12.10;;;8.60;99.90;;;8.75;95.10;102859.34;5030337;28;20636;-65
2021/12/17 01:44:47;;;;;;;19.93;10.97;;;8.50;99.90;;;8.75;95.23;102855.88;5025793;28;20629;-65
2021/12/17 01:47:15;;;;;;;18.73;10.23;;;8.50;99.90;;;8.77;95.70;102861.88;5025379;28;20976;-64
2021/12/17 02:00:48;;;;;;;19.87;10.50;;;8.70;99.90;;;8.93;94.60;102858.78;5021555;28;20659;-64
2021/12/17 02:03:17;;;;;;;17.67;9.60;;;8.70;99.90;;;8.91;94.44;102850.16;5021202;28;20627;-64
2021/12/17 02:05:45;;;;;;;14.33;8.10;;;8.70;99.90;;;8.94;93.29;102855.28;5028240;28;20686;-64
2021/12/17 02:08:13;;;;;;;11.47;7.17;;;8.70;99.90;;;8.95;93.82;102862.19;5030292;28;20741;-64
2021/12/17 02:11:36;;;;;;;20.80;10.73;;;8.70;99.90;;;8.94;93.88;102863.09;5029045;28;20687;-64
2021/12/17 02:19:44;;;;;;;18.90;10.70;;;8.70;99.90;;;8.89;94.36;102851.09;5018063;28;21249;-64
2021/12/17 02:32:59;;;;;;;22.70;11.33;;;8.50;99.90;;;8.75;95.29;102842.84;5030497;28;20616;-65
2021/12/17 02:35:33;;;;;;;17.73;9.47;;;8.50;99.90;;;8.76;95.43;102844.53;5020720;28;20640;-65
2021/12/17 02:38:02;;;;;;;19.60;10.20;;;8.50;99.90;;;8.78;94.88;102842.75;5013849;28;20676;-65
2021/12/17 02:45:49;;;;;;;25.17;12.00;;;8.50;99.90;;;8.75;95.63;102832.44;5028391;28;20632;-65
2021/12/17 02:48:23;;;;;;;18.97;10.37;;;8.50;99.90;;;8.75;96.08;102833.31;5018360;28;20645;-65
2021/12/17 02:50:58;;;;;;;23.57;10.53;;;8.50;99.90;;;8.78;95.66;102832.34;5009733;28;20628;-64
2021/12/17 02:53:28;;;;;;;19.87;10.17;;;8.50;99.90;;;8.81;95.71;102832.25;5029623;28;20977;-65
2021/12/17 02:56:03;;;;;;;21.43;9.87;;;8.60;99.90;;;8.81;95.29;102840.94;5028687;28;20624;-64
2021/12/17 02:58:32;;;;;;;18.97;10.60;;;8.60;99.90;;;8.78;95.76;102841.00;5029954;28;21053;-65
2021/12/17 03:01:06;;;;;;;20.03;10.50;;;8.50;99.90;;;8.76;95.72;102834.13;5028180;28;20637;-65
2021/12/17 03:03:34;;;;;;;23.63;11.87;;;8.50;99.90;;;8.76;95.21;102839.34;5030414;28;20616;-65
2021/12/17 03:06:01;;;;;;;19.47;10.60;;;8.50;99.90;;;8.73;95.94;102831.63;5028011;28;20620;-65
2021/12/17 03:08:29;;;;;;;19.07;9.20;;;8.50;99.90;;;8.70;96.11;102835.19;5030386;28;20711;-65
2021/12/17 03:10:58;;;;;;;18.27;9.67;;;8.50;99.90;;;8.73;96.33;102836.84;5029085;28;20660;-65
2021/12/17 03:13:28;;;;;;;20.53;10.77;;;8.50;99.90;;;8.77;96.17;102833.25;5028911;28;21246;-65
2021/12/17 03:16:09;;;;;;;21.00;11.23;;;8.50;99.90;;;8.79;96.45;102834.06;5030526;28;21203;-65
2021/12/17 03:18:57;;;;;;;21.13;11.20;;;8.50;99.90;;;8.80;96.45;102840.94;5030289;28;20671;-65
2021/12/17 03:24:09;;;;;;;15.67;8.53;;;8.50;99.90;;;8.82;95.70;102834.81;5032257;28;20638;-65
2021/12/17 03:26:36;;;;;;;23.07;11.63;;;8.60;99.90;;;8.81;96.11;102840.06;5032117;28;20621;-65
2021/12/17 03:29:09;;;;;;;20.40;12.10;;;8.50;99.90;;;8.81;95.75;102837.47;5031805;28;21241;-65
2021/12/17 03:31:37;;;;;;;20.07;9.97;;;8.60;99.90;;;8.82;95.42;102846.97;5023694;28;20644;-65
2021/12/17 03:36:41;;;;;;;19.77;10.30;;;8.50;99.90;;;8.80;95.63;102848.75;5032941;28;20984;-65
2021/12/17 03:39:08;;;;;;;21.87;11.50;;;8.50;99.90;;;8.78;95.50;102846.22;5032939;28;20667;-65
2021/12/17 03:41:37;;;;;;;19.67;10.07;;;8.60;99.90;;;8.74;95.66;102844.59;5030135;28;20763;-65
2021/12/17 03:44:08;;;;;;;18.20;9.50;;;8.50;99.90;;;8.76;96.32;102841.94;5025964;28;20642;-65
2021/12/17 03:46:35;;;;;;;20.63;10.50;;;8.60;99.90;;;8.73;96.28;102842.06;5032301;28;21203;-65
2021/12/17 03:49:03;;;;;;;20.10;11.53;;;8.50;99.90;;;8.69;96.90;102841.25;5030301;28;21018;-64
2021/12/17 03:51:31;;;;;;;25.00;12.97;;;8.40;99.90;;;8.69;96.83;102846.47;5026035;28;20663;-65
2021/12/17 03:53:59;;;;;;;24.77;11.83;;;8.50;99.90;;;8.71;97.27;102849.06;5011528;28;20993;-65
2021/12/17 03:56:27;;;;;;;27.63;12.60;;;8.50;99.90;;;8.66;97.65;102843.97;5019392;28;21178;-65
2021/12/17 03:58:57;;;;;;;25.73;12.13;;;8.40;99.90;;;8.64;97.86;102844.91;5032544;28;20663;-65
2021/12/17 04:01:26;;;;;;;22.93;12.00;;;8.40;99.90;;;8.57;98.18;102842.50;5032262;28;20738;-65
2021/12/17 04:03:53;;;;;;;32.83;14.97;;;8.30;99.90;;;8.56;98.46;102843.38;5032642;28;20966;-64
2021/12/17 04:06:21;;;;;;;28.13;11.70;;;8.30;99.90;;;8.55;98.37;102839.09;5022207;28;20636;-65
2021/12/17 04:08:48;;;;;;;24.40;11.67;;;8.30;99.90;;;8.58;98.64;102843.34;5013500;28;20624;-65
2021/12/17 04:11:18;;;;;;;19.90;11.43;;;8.30;99.90;;;8.58;98.79;102845.94;5020099;28;20657;-65
2021/12/17 04:13:53;;;;;;;27.00;12.53;;;8.30;99.90;;;8.59;98.01;102842.44;5032912;28;20629;-65
2021/12/17 04:16:28;;;;;;;22.20;11.13;;;8.40;99.90;;;8.54;98.86;102839.97;5031129;28;20624;-65
2021/12/17 04:18:55;;;;;;;19.43;11.20;;;8.30;99.90;;;8.58;98.28;102835.53;5032707;28;20652;-65
2021/12/17 04:21:23;;;;;;;22.10;10.03;;;8.40;99.90;;;8.60;98.98;102834.56;5028866;28;21569;-65
2021/12/17 04:23:54;;;;;;;23.27;11.63;;;8.40;99.90;;;8.64;98.54;102829.28;5020004;28;20716;-65
2021/12/17 04:26:23;;;;;;;21.13;10.50;;;8.40;99.90;;;8.64;98.81;102829.28;5011461;28;20648;-65
2021/12/17 04:28:52;;;;;;;22.60;10.77;;;8.40;99.90;;;8.65;98.72;102828.38;5029346;28;20662;-65
2021/12/17 04:31:27;;;;;;;17.87;10.30;;;8.40;99.90;;;8.64;98.42;102826.69;5022634;28;21030;-66
2021/12/17 04:33:55;;;;;;;24.00;11.10;;;8.40;99.90;;;8.66;98.48;102825.75;5037746;28;20627;-65
2021/12/17 04:36:27;;;;;;;16.20;9.50;;;8.40;99.90;;;8.66;98.34;102817.09;5052515;28;20627;-65
2021/12/17 04:38:56;;;;;;;16.63;9.70;;;8.40;99.90;;;8.68;98.55;102815.28;5011969;28;21220;-65
2021/12/17 04:44:13;;;;;;;17.50;8.47;;;8.40;99.90;;;8.69;98.48;102804.00;5031673;28;20976;-66
2021/12/17 04:57:32;;;;;;;18.90;10.17;;;8.30;99.90;;;8.55;97.88;102780.97;5030869;28;20983;-65
2021/12/17 05:00:15;;;;;;;18.53;8.90;;;8.20;99.90;;;8.48;97.62;102772.50;5030096;28;20656;-66
2021/12/17 05:02:46;;;;;;;19.00;8.40;;;8.20;99.90;;;8.43;97.81;102773.53;5031280;28;20627;-65
2021/12/17 05:05:16;;;;;;;15.30;8.20;;;8.10;99.90;;;8.34;97.53;102764.25;4997124;28;21074;-65
2021/12/17 05:07:51;;;;;;;18.83;9.53;;;8.00;99.90;;;8.24;97.84;102765.34;5015215;28;20627;-66
2021/12/17 05:20:49;;;;;;;9.93;6.90;;;7.70;99.90;;;7.95;98.84;102765.31;5030716;28;20641;-65
2021/12/17 05:23:22;;;;;;;12.17;7.50;;;7.60;99.90;;;7.92;99.50;102773.22;5029521;28;20637;-66
2021/12/17 05:25:51;;;;;;;16.50;8.33;;;7.60;99.90;;;7.89;99.50;102775.03;5032352;28;20628;-65
2021/12/17 05:28:18;;;;;;;12.67;8.00;;;7.50;99.90;;;7.87;99.51;102779.41;5030783;28;20620;-65
2021/12/17 05:30:47;;;;;;;15.80;7.80;;;7.50;99.90;;;7.83;100.00;102774.31;5030671;28;20656;-65
2021/12/17 05:33:18;;;;;;;14.37;7.70;;;7.50;99.90;;;7.80;99.68;102774.38;5030942;28;20627;-66
2021/12/17 05:35:46;;;;;;;17.17;7.80;;;7.50;99.90;;;7.78;99.11;102768.38;5026817;28;21189;-65
2021/12/17 05:38:15;;;;;;;14.70;7.83;;;7.50;99.90;;;7.76;99.58;102772.78;5010788;28;20752;-65
2021/12/17 05:40:43;;;;;;;19.17;10.60;;;7.50;99.90;;;7.72;99.65;102768.56;5014469;28;21005;-65
2021/12/17 05:43:11;;;;;;;14.70;9.17;;;7.40;99.90;;;7.65;99.44;102772.19;5030545;28;20639;-65
2021/12/17 05:45:51;;;;;;;15.37;8.00;;;7.40;99.90;;;7.60;98.61;102766.25;5029955;28;20616;-65
2021/12/17 05:48:21;;;;;;;14.40;8.10;;;7.30;99.90;;;7.49;99.55;102773.50;5030197;28;20646;-65
2021/12/17 05:50:51;;;;;;;19.37;9.03;;;7.20;99.90;;;7.42;100.00;102792.72;5030778;28;20643;-65
2021/12/17 05:53:19;;;;;;;18.40;9.50;;;7.10;99.90;;;7.41;99.92;102795.34;5029767;28;21206;-65
2021/12/17 05:55:46;;;;;;;19.47;10.60;;;7.10;99.90;;;7.40;99.59;102798.81;5026623;28;20651;-65
2021/12/17 05:58:14;;;;;;;20.87;10.40;;;7.10;99.90;;;7.34;99.92;102799.84;5010379;28;21252;-65
2021/12/17 06:00:43;;;;;;;19.20;9.60;;;7.00;99.90;;;7.27;100.00;102795.69;5014075;28;20655;-65
2021/12/17 06:03:30;;;;;;;24.20;10.23;;;7.00;99.90;;;7.23;100.00;102804.44;5030430;28;20724;-65
2021/12/17 06:05:57;;;;;;;21.93;10.00;;;6.90;99.90;;;7.20;100.00;102804.50;5029647;28;20636;-65
2021/12/17 06:08:24;;;;;;;16.17;9.23;;;6.90;99.90;;;7.19;100.00;102805.41;5030505;28;21171;-65
2021/12/17 06:10:51;;;;;;;20.00;9.60;;;6.90;99.90;;;7.19;100.00;102808.00;5030112;28;20678;-65
2021/12/17 06:13:17;;;;;;;21.30;9.97;;;6.90;99.90;;;7.20;100.00;102811.47;5025134;28;20647;-62
2021/12/17 06:15:44;;;;;;;15.63;8.17;;;6.90;99.90;;;7.21;100.00;102813.16;5021713;28;20661;-65
2021/12/17 06:18:11;;;;;;;14.97;8.20;;;6.90;99.90;;;7.20;100.00;102809.69;5004676;28;21020;-65
2021/12/17 06:20:38;;;;;;;15.97;8.07;;;6.90;99.90;;;7.22;100.00;102815.69;5023515;28;20637;-65
2021/12/17 06:23:06;;;;;;;25.03;9.50;;;6.90;99.90;;;7.24;100.00;102810.50;5023883;28;20752;-65
2021/12/17 06:25:33;;;;;;;14.37;7.97;;;7.00;99.90;;;7.22;100.00;102818.28;5030146;28;20608;-65
2021/12/17 06:28:00;;;;;;;17.97;9.23;;;7.00;99.90;;;7.20;100.00;102814.88;5029693;28;20620;-65
2021/12/17 06:30:27;;;;;;;16.47;9.23;;;6.90;99.90;;;7.19;100.00;102812.34;5029922;28;20660;-66
2021/12/17 06:32:54;;;;;;;13.90;7.77;;;6.90;99.90;;;7.19;100.00;102818.38;5029360;28;21215;-65
2021/12/17 06:35:21;;;;;;;16.60;8.70;;;6.90;99.90;;;7.19;100.00;102820.13;5029433;28;20625;-65
2021/12/17 06:37:48;;;;;;;15.60;8.50;;;6.90;99.90;;;7.18;100.00;102826.19;5017922;28;20629;-65
2021/12/17 06:40:15;;;;;;;17.30;8.40;;;6.90;99.90;;;7.15;99.74;102824.53;5025451;28;21030;-66
2021/12/17 06:42:41;;;;;;;15.00;8.17;;;6.90;99.90;;;7.12;100.00;102822.00;5026255;28;21062;-65
2021/12/17 06:45:18;;;;;;;16.80;8.57;;;6.90;99.90;;;7.10;99.65;102818.59;5008646;28;21197;-65
2021/12/17 06:47:53;;;;;;;18.70;8.73;;;6.80;99.90;;;7.09;99.72;102824.69;5028624;28;20707;-66
2021/12/17 07:18:26;;;;;;;19.60;9.20;;;6.60;99.90;;;6.82;100.00;102849.50;5050662;28;20634;-71
2021/12/17 07:21:05;;;;;;;12.70;6.63;;;6.50;99.90;;;6.81;99.64;102853.00;5041445;28;20711;-73
2021/12/17 07:34:40;;;;;;;13.47;6.77;;;6.50;99.90;;;6.75;98.63;102863.47;5040878;28;20637;-70
2021/12/17 07:39:35;;;;;;;13.43;8.17;;;6.60;99.90;;;6.87;98.55;102859.78;5048107;28;20667;-71
2021/12/17 07:42:02;;;;;;;17.10;7.43;;;6.70;99.90;;;6.95;98.39;102866.50;5033913;28;20657;-69
2021/12/17 07:44:30;;;;;;;16.40;7.73;;;6.70;99.90;;;7.02;99.24;102862.91;5036525;28;21011;-71
2021/12/17 07:46:57;;;;;;;8.50;5.47;;;6.90;99.90;;;7.16;98.18;102865.19;5035416;28;20633;-73
2021/12/17 07:49:24;;;;;;;7.17;4.80;;;7.00;99.90;;;7.28;97.96;102867.53;5056213;28;20643;-71
2021/12/17 07:51:50;;;;;;;9.80;5.90;;;7.20;99.90;;;7.42;97.06;102868.03;5058604;28;21041;-71
2021/12/17 07:54:17;;;;;;;9.33;5.27;;;7.30;99.90;;;7.57;96.10;102872.88;5051553;28;20619;-71
2021/12/17 07:56:45;;;;;;;10.83;6.30;;;7.50;99.90;;;7.68;95.04;102870.00;5051686;28;20643;-72
2021/12/17 07:59:13;;;;;;;12.93;6.87;;;7.60;99.90;;;7.82;93.22;102867.91;5031319;28;21223;-70
2021/12/17 08:01:40;;;;;;;19.70;6.90;;;7.70;99.90;;;7.87;92.19;102865.19;5042823;28;20635;-71
2021/12/17 08:04:09;;;;;;;8.43;5.80;;;7.80;99.90;;;7.99;91.42;102854.47;5031098;28;20640;-72
2021/12/17 08:06:37;;;;;;;9.23;6.27;;;7.90;99.90;;;8.03;90.72;102858.72;5044427;28;20620;-71
2021/12/17 08:09:05;;;;;;;8.53;5.57;;;8.00;99.90;;;8.11;89.76;102865.44;5068459;28;20996;-71
2021/12/17 08:11:39;;;;;;;10.53;6.17;;;8.00;99.90;;;8.15;89.80;102866.19;5049962;28;20639;-69
2021/12/17 08:14:11;;;;;;;11.77;6.10;;;8.00;99.90;;;8.16;89.53;102862.69;5034915;28;20652;-71
2021/12/17 08:16:49;;;;;;;13.10;6.60;;;8.00;99.90;;;8.41;90.28;102858.59;5033795;28;20998;-70
2021/12/17 08:27:33;;;;;;;8.13;5.97;;;14.00;99.90;;;15.46;62.03;102886.09;5051686;28;20632;-70
2021/12/17 08:32:44;;;;;;;9.67;6.60;;;17.90;99.40;;;18.78;50.58;102880.44;5051170;28;20663;-72
2021/12/17 08:35:12;;;;;;;8.90;6.77;;;19.60;92.80;;;19.77;46.88;102885.44;5052339;28;20742;-71
2021/12/17 08:37:39;;;;;;;8.30;6.17;;;20.70;87.10;;;20.46;45.47;102888.97;5050946;28;20639;-71
2021/12/17 08:40:08;;;;;;;10.50;6.47;;;21.30;81.20;;;21.05;44.03;102877.13;5032644;28;20788;-71
2021/12/17 08:42:35;;;;;;;8.70;6.57;;;22.00;76.80;;;21.93;41.81;102885.75;5050074;28;20658;-71
2021/12/17 08:45:08;;;;;;;8.77;6.70;;;23.00;72.00;;;22.14;40.58;102876.81;5050983;28;20611;-71
2021/12/17 08:47:36;;;;;;;8.93;7.00;;;23.30;68.10;;;21.50;41.09;102880.50;5033277;28;20646;-71
2021/12/17 08:50:06;;;;;;;8.10;6.60;;;22.50;67.70;;;20.24;42.60;102875.69;5049823;28;21185;-71
2021/12/17 08:52:33;;;;;;;8.80;7.20;;;20.80;70.40;;;18.85;45.23;102878.16;5051452;28;20746;-71
2021/12/17 08:55:01;;;;;;;10.53;7.27;;;19.10;74.70;;;17.43;48.14;102885.31;5051177;28;20710;-71
2021/12/17 08:57:28;;;;;;;12.07;7.97;;;17.50;81.30;;;17.54;49.18;102881.06;5058192;28;20634;-71
2021/12/17 08:59:57;;;;;;;11.80;8.80;;;17.90;84.40;;;17.62;48.85;102883.19;5064962;28;20668;-71
2021/12/17 09:02:25;;;;;;;13.90;8.73;;;18.30;83.40;;;17.24;49.09;102883.03;5043984;28;20654;-71
2021/12/17 09:04:52;;;;;;;13.60;8.30;;;17.90;82.90;;;16.16;51.62;102885.44;5049692;28;20639;-71
2021/12/17 09:07:19;;;;;;;12.13;8.17;;;16.50;87.50;;;14.78;55.05;102885.44;5059493;28;20611;-71
2021/12/17 09:09:48;;;;;;;12.03;7.60;;;14.80;92.60;;;13.87;58.59;102891.13;5051015;28;20631;-71
2021/12/17 09:12:15;;;;;;;9.23;6.77;;;13.70;98.20;;;12.89;61.02;102893.25;5051763;28;20648;-72
2021/12/17 09:14:42;;;;;;;6.97;6.13;;;12.60;99.90;;;12.22;63.82;102906.72;5032129;28;20723;-72
2021/12/17 09:17:09;;;;;;;9.43;6.77;;;11.90;99.90;;;11.59;67.40;102905.00;5051106;28;20616;-71
2021/12/17 09:19:36;;;;;;;8.50;6.23;;;11.30;99.90;;;11.13;69.97;102906.84;5050632;28;20668;-71
2021/12/17 09:22:03;;;;;;;8.43;6.17;;;10.90;99.90;;;10.70;71.62;102892.81;5051018;28;21253;-71
2021/12/17 09:24:31;;;;;;;8.03;5.20;;;10.50;99.90;;;10.40;73.05;102904.34;5032164;28;20623;-70
2021/12/17 09:26:59;;;;;;;6.57;5.43;;;10.20;99.90;;;9.97;75.02;102914.50;5049560;28;20710;-73
2021/12/17 09:29:27;;;;;;;5.93;4.43;;;9.80;99.90;;;9.75;75.47;102908.31;5049756;28;20618;-73
2021/12/17 09:31:54;;;;;;;10.13;5.23;;;9.50;99.90;;;9.61;76.63;102916.56;5028755;28;20664;-70
2021/12/17 09:34:22;;;;;;;8.17;5.30;;;9.40;99.90;;;9.50;76.83;102912.59;5014066;28;21242;-70
2021/12/17 09:36:49;;;;;;;6.83;5.10;;;9.30;99.90;;;9.32;78.25;102914.88;5046620;28;20737;-68
2021/12/17 09:39:17;;;;;;;7.83;5.03;;;9.20;99.90;;;9.32;78.88;102906.19;5055208;28;20663;-71
2021/12/17 09:41:50;;;;;;;7.67;4.87;;;9.10;99.90;;;9.25;78.68;102908.16;5068509;28;20963;-70
2021/12/17 09:44:19;;;;;;;6.77;4.73;;;9.10;99.90;;;9.27;78.05;102901.13;5033317;28;20615;-73
2021/12/17 09:46:48;;;;;;;7.80;5.07;;;9.10;99.90;;;9.25;78.83;102905.53;5049813;28;20642;-69
2021/12/17 09:49:19;;;;;;;5.97;4.40;;;9.10;99.90;;;9.27;79.00;102908.94;5046513;28;20675;-70
2021/12/17 09:51:47;;;;;;;6.17;4.70;;;9.10;99.90;;;9.15;79.81;102906.72;5050677;28;21264;-73
2021/12/17 09:54:14;;;;;;;8.60;5.70;;;9.00;99.90;;;9.19;79.82;102907.47;5052741;28;20702;-71
2021/12/17 09:56:42;;;;;;;11.30;7.00;;;9.00;99.90;;;9.22;80.20;102905.63;5035875;28;20653;-72
2021/12/17 09:59:09;;;;;;;15.93;9.07;;;9.10;99.90;;;9.13;81.16;102907.66;5032171;28;20665;-72
2021/12/17 10:01:42;;;;;;;12.80;7.90;;;9.00;99.90;;;9.13;80.94;102908.53;5033867;28;20623;-70
2021/12/17 10:04:18;;;;;;;15.77;8.60;;;9.00;99.90;;;9.07;81.33;102907.84;5045848;28;20611;-72
2021/12/17 10:06:49;;;;;;;18.30;9.83;;;8.90;99.90;;;9.05;81.66;102910.47;5041108;28;20711;-72
2021/12/17 10:09:17;;;;;;;18.23;9.60;;;8.90;99.90;;;9.03;81.51;102901.88;5046249;28;20626;-72
2021/12/17 10:12:06;;;;;;;14.20;7.57;;;8.90;99.90;;;9.08;82.03;102912.16;5028118;28;20636;-72
2021/12/17 10:14:33;;;;;;;14.17;8.30;;;8.90;99.90;;;9.09;81.81;102909.47;5034723;28;21254;-71
2021/12/17 10:17:13;;;;;;;20.03;9.40;;;8.90;99.90;;;9.15;81.68;102908.47;5057208;28;20620;-73
2021/12/17 10:19:49;;;;;;;17.33;8.10;;;9.00;99.90;;;9.13;81.42;102902.47;5033348;28;20651;-72
2021/12/17 10:22:19;;;;;;;12.93;8.00;;;9.00;99.90;;;9.09;82.29;102899.06;5032495;28;20635;-72
2021/12/17 10:25:07;;;;;;;13.67;7.30;;;9.00;99.90;;;9.11;82.22;102893.84;5050179;28;21065;-72
2021/12/17 10:27:41;;;;;;;12.10;7.83;;;9.00;99.90;;;9.12;82.54;102898.13;5052088;28;20619;-72
2021/12/17 10:30:21;;;;;;;13.83;8.80;;;9.00;99.90;;;9.13;82.96;102884.22;5036378;28;21128;-72
2021/12/17 10:32:53;;;;;;;11.60;8.17;;;9.00;99.90;;;9.08;83.27;102876.53;5055234;28;20637;-71
2021/12/17 10:35:26;;;;;;;11.37;7.73;;;9.00;99.90;;;8.97;82.53;102876.00;5052738;28;20650;-71
2021/12/17 10:38:03;;;;;;;10.10;8.07;;;8.90;99.90;;;8.98;81.21;102892.50;5036947;28;20623;-71
2021/12/17 10:40:33;;;;;;;9.47;7.20;;;8.90;99.90;;;8.96;80.94;102895.16;5052671;28;21123;-72
2021/12/17 10:43:27;;;;;;;10.07;7.60;;;8.80;99.90;;;9.05;81.43;102892.25;5052525;28;21051;-71
2021/12/17 10:46:10;;;;;;;8.60;7.20;;;8.90;99.90;;;9.03;81.02;102891.44;5066515;28;20615;-71
2021/12/17 10:54:20;;;;;;;11.00;7.20;;;8.80;99.90;;;9.05;80.36;102894.03;5031323;28;21237;-72
2021/12/17 10:56:51;;;;;;;12.33;6.47;;;8.90;99.90;;;9.04;80.17;102893.16;5041796;28;21081;-72
2021/12/17 10:59:30;;;;;;;8.60;6.10;;;8.90;99.90;;;9.04;79.67;102887.97;5061937;28;20685;-69
2021/12/17 11:02:06;;;;;;;8.60;6.87;;;8.90;99.90;;;9.15;79.01;102893.69;5054582;28;20638;-72
2021/12/17 11:04:40;;;;;;;7.80;5.30;;;9.00;99.90;;;9.20;79.18;102886.56;5053577;28;20723;-72
2021/12/17 11:07:16;;;;;;;7.07;4.33;;;9.00;99.90;;;9.23;77.47;102894.31;5034325;28;20615;-72
2021/12/17 11:09:50;;;;;;;9.37;5.53;;;9.10;99.90;;;9.35;75.62;102886.09;5017422;28;21005;-72
2021/12/17 11:12:33;;;;;;;4.60;4.20;;;9.20;99.90;;;9.35;75.32;102885.25;5057517;28;20753;-74
2021/12/17 11:15:22;;;;;;;5.80;4.63;;;9.20;99.90;;;9.42;75.27;102878.09;5015765;28;21003;-74
2021/12/17 11:18:00;;;;;;;2.60;2.40;;;9.20;99.90;;;9.46;73.83;102875.34;5026597;28;20620;-72
2021/12/17 11:20:38;;;;;;;4.80;3.57;;;9.30;99.90;;;9.53;73.25;102865.56;5033111;28;21249;-72
2021/12/17 11:23:12;;;;;;;5.50;4.30;;;9.30;99.90;;;9.58;73.18;102868.91;5045962;28;20657;-72
2021/12/17 11:25:46;;;;;;;5.23;4.70;;;9.40;99.90;;;9.55;73.89;102863.78;5036363;28;20607;-72
2021/12/17 11:28:13;;;;;;;1.87;1.73;;;9.30;99.90;;;9.52;73.54;102872.53;5052987;28;20628;-72
2021/12/17 11:30:44;;;;;;;7.03;4.43;;;9.40;99.90;;;9.57;73.61;102864.56;5052001;28;20646;-72
2021/12/17 11:33:12;;;;;;;6.20;4.93;;;9.40;99.90;;;9.64;74.03;102860.88;5053028;28;20646;-72
2021/12/17 11:35:43;;;;;;;5.80;5.20;;;9.50;99.90;;;9.59;74.98;102865.38;5051909;28;21011;-70
2021/12/17 11:38:18;;;;;;;5.90;4.33;;;9.50;99.90;;;9.63;74.41;102867.84;5052910;28;20642;-73
2021/12/17 11:41:01;;;;;;;3.50;2.43;;;9.50;99.90;;;9.43;74.63;102885.03;5050076;28;20659;-73
2021/12/17 11:43:52;;;;;;;5.57;4.90;;;9.40;99.90;;;9.49;74.54;102884.81;5028633;28;21255;-71
2021/12/17 11:46:33;;;;;;;6.50;5.13;;;9.30;99.90;;;9.48;73.37;102878.75;5030752;28;20621;-73
2021/12/17 11:49:15;;;;;;;5.43;3.37;;;9.30;99.90;;;9.52;74.00;102884.75;5047355;28;20623;-73
2021/12/17 11:51:54;;;;;;;3.87;3.40;;;9.30;99.90;;;9.55;74.25;102869.00;5003574;28;20715;-72
2021/12/17 11:54:33;;;;;;;2.37;2.10;;;9.40;99.90;;;9.58;73.21;102868.91;5049525;28;20638;-72
2021/12/17 11:57:16;;;;;;;3.50;3.20;;;9.40;99.90;;;9.51;72.86;102863.03;5019089;28;20790;-72
2021/12/17 11:59:45;;;;;;;6.60;5.03;;;9.40;99.90;;;9.52;72.32;102858.69;5049446;28;20670;-73
2021/12/17 12:02:22;;;;;;;6.87;5.50;;;9.30;99.90;;;9.41;72.70;102853.81;5047812;28;20640;-72
2021/12/17 12:05:04;;;;;;;6.57;5.50;;;9.30;99.90;;;9.31;73.30;102850.63;5051554;28;21194;-73
2021/12/17 12:07:36;;;;;;;7.40;5.17;;;9.10;99.90;;;9.24;73.79;102854.31;5053222;28;20706;-72
2021/12/17 12:10:11;;;;;;;7.07;4.90;;;9.00;99.90;;;9.20;74.37;102850.09;5034203;28;21044;-73
2021/12/17 12:12:46;;;;;;;4.63;3.53;;;9.00;99.90;;;9.23;73.64;102852.63;5051995;28;21225;-72
2021/12/17 12:15:23;;;;;;;5.83;3.67;;;9.00;99.90;;;9.25;72.91;102839.56;5047547;28;20745;-72
2021/12/17 12:18:03;;;;;;;4.43;3.90;;;9.10;99.90;;;9.24;74.13;102841.28;5043626;28;20641;-70
2021/12/17 12:20:51;;;;;;;6.53;5.13;;;9.10;99.90;;;9.23;74.07;102836.16;5051367;28;21061;-70
2021/12/17 12:23:30;;;;;;;8.83;5.50;;;9.00;99.90;;;9.15;74.02;102849.41;5050696;28;20651;-70
2021/12/17 12:28:48;;;;;;;6.57;4.80;;;9.00;99.90;;;9.12;74.47;102846.91;5050962;28;21080;-70
2021/12/17 12:31:24;;;;;;;4.33;3.60;;;8.90;99.90;;;9.16;73.93;102850.25;5052627;28;20718;-70
2021/12/17 12:34:35;;;;;;;3.83;2.17;;;9.00;99.90;;;9.20;74.17;102850.09;5058882;28;21067;-70
2021/12/17 12:37:22;;;;;;;7.10;5.27;;;9.00;99.90;;;9.20;74.25;102847.50;5029795;28;20664;-71
2021/12/17 12:39:56;;;;;;;5.73;4.30;;;9.00;99.90;;;9.27;74.08;102848.16;4998876;28;20660;-71
2021/12/17 12:42:32;;;;;;;4.53;3.83;;;9.00;99.90;;;9.23;74.50;102838.75;5038224;28;20753;-71
2021/12/17 12:44:59;;;;;;;7.40;5.17;;;9.10;99.90;;;9.32;74.09;102841.94;5014655;28;20624;-70
2021/12/17 12:47:26;;;;;;;5.67;4.93;;;9.10;99.90;;;9.34;74.24;102839.25;5023772;28;20643;-70
2021/12/17 12:50:06;;;;;;;8.37;6.67;;;9.10;99.90;;;9.39;74.88;102835.59;5059525;28;21256;-73
2021/12/17 12:52:51;;;;;;;7.57;6.53;;;9.20;99.90;;;9.48;75.09;102836.19;5050154;28;20709;-69
2021/12/17 12:55:28;;;;;;;10.13;7.17;;;9.30;99.90;;;9.59;74.52;102821.06;5033919;28;20649;-70
2021/12/17 12:57:58;;;;;;;8.70;6.80;;;9.50;99.90;;;9.59;73.72;102834.94;5050254;28;21218;-72
2021/12/17 13:00:34;;;;;;;9.20;6.97;;;9.40;99.90;;;9.47;73.90;102829.28;5050419;28;21239;-72
2021/12/17 13:03:08;;;;;;;7.53;5.63;;;9.30;99.90;;;9.24;74.49;102832.66;5055611;28;20656;-72
2021/12/17 13:05:36;;;;;;;8.20;5.80;;;9.10;99.90;;;9.20;74.79;102842.28;5052992;28;20629;-72
2021/12/17 13:08:07;;;;;;;9.80;5.33;;;9.00;99.90;;;9.21;74.57;102846.63;5070190;28;21036;-73
2021/12/17 13:10:41;;;;;;;6.70;4.97;;;9.00;99.90;;;9.18;74.62;102844.09;5053162;28;20610;-72
2021/12/17 13:13:19;;;;;;;10.93;6.50;;;9.00;99.90;;;9.12;74.48;102844.28;5058962;22;20718;-65
2021/12/17 13:16:03;;;;;;;11.30;7.40;;;8.90;99.90;;;9.05;75.54;102845.38;5052422;28;20659;-62
2021/12/17 13:24:14;;;;;;;5.63;3.70;;;8.80;99.90;;;9.05;75.24;102841.94;5029987;28;20628;-63
2021/12/17 13:27:09;;;;;;;8.30;3.87;;;8.80;99.90;;;9.14;74.45;102823.41;5029658;28;20640;-64
2021/12/17 13:29:44;;;;;;;10.13;5.40;;;8.90;99.90;;;9.13;75.52;102822.56;5014638;28;21201;-64
2021/12/17 13:32:13;;;;;;;8.90;6.40;;;8.90;99.90;;;9.24;75.88;102825.66;5030901;28;21014;-64
2021/12/17 13:34:48;;;;;;;11.93;6.67;;;9.00;99.90;;;9.21;75.82;102825.78;5030649;28;20738;-64
2021/12/17 13:37:21;;;;;;;7.20;5.40;;;9.00;99.90;;;9.26;74.45;102826.47;5012816;28;20727;-64
2021/12/17 13:40:11;;;;;;;7.80;5.60;;;9.10;99.90;;;9.30;74.70;102815.06;4996717;28;20727;-64